sensor_id;sensor_type;location;lat;lon;timestamp;pressure;altitude;pressure_sealevel;temperature;humidity
47753;BME280;2038;51.728;6.674;2023-05-29T00:01:26;101574.03;;;15.04;93.10
47753;BME280;2038;51.728;6.674;2023-05-29T00:03:52;101568.75;;;15.16;92.63
47753;BME280;2038;51.728;6.674;2023-05-29T00:06:21;101578.78;;;14.98;93.40
47753;BME280;2038;51.728;6.674;2023-05-29T00:08:48;101573.97;;;14.89;93.94
47753;BME280;2038;51.728;6.674;2023-05-29T00:11:14;101568.47;;;14.83;94.69
47753;BME280;2038;51.728;6.674;2023-05-29T00:13:40;101564.00;;;14.81;94.72
47753;BME280;2038;51.728;6.674;2023-05-29T00:16:07;101568.50;;;14.70;95.21
47753;BME280;2038;51.728;6.674;2023-05-29T00:18:35;101568.03;;;14.63;95.42
47753;BME280;2038;51.728;6.674;2023-05-29T00:21:02;101564.09;;;14.55;96.21
47753;BME280;2038;51.728;6.674;2023-05-29T00:23:28;101568.16;;;14.51;96.16
47753;BME280;2038;51.728;6.674;2023-05-29T00:25:54;101563.63;;;14.47;96.38
47753;BME280;2038;51.728;6.674;2023-05-29T00:28:21;101571.13;;;14.44;96.11
47753;BME280;2038;51.728;6.674;2023-05-29T00:30:48;101567.38;;;14.39;96.28
47753;BME280;2038;51.728;6.674;2023-05-29T00:33:14;101571.13;;;14.31;96.42
47753;BME280;2038;51.728;6.674;2023-05-29T00:35:40;101580.00;;;14.23;96.50
47753;BME280;2038;51.728;6.674;2023-05-29T00:38:07;101590.84;;;14.19;96.85
47753;BME280;2038;51.728;6.674;2023-05-29T00:40:33;101591.63;;;14.18;95.83
47753;BME280;2038;51.728;6.674;2023-05-29T00:42:59;101592.63;;;14.06;96.04
47753;BME280;2038;51.728;6.674;2023-05-29T00:45:25;101598.66;;;14.20;95.13
47753;BME280;2038;51.728;6.674;2023-05-29T00:47:52;101612.22;;;14.06;94.95
47753;BME280;2038;51.728;6.674;2023-05-29T00:50:22;101611.31;;;13.92;95.54
47753;BME280;2038;51.728;6.674;2023-05-29T00:52:50;101614.28;;;13.85;95.15
47753;BME280;2038;51.728;6.674;2023-05-29T00:55:17;101609.81;;;13.70;95.65
47753;BME280;2038;51.728;6.674;2023-05-29T00:57:43;101614.44;;;13.62;94.61
47753;BME280;2038;51.728;6.674;2023-05-29T01:00:11;101618.84;;;13.51;92.93
47753;BME280;2038;51.728;6.674;2023-05-29T01:02:41;101617.53;;;13.45;92.34
47753;BME280;2038;51.728;6.674;2023-05-29T01:05:11;101625.91;;;13.42;91.32
47753;BME280;2038;51.728;6.674;2023-05-29T01:07:38;101628.84;;;13.35;91.23
47753;BME280;2038;51.728;6.674;2023-05-29T01:10:05;101638.66;;;13.29;89.56
47753;BME280;2038;51.728;6.674;2023-05-29T01:12:53;101630.44;;;13.22;89.61
47753;BME280;2038;51.728;6.674;2023-05-29T01:18:27;101629.44;;;13.08;89.93
47753;BME280;2038;51.728;6.674;2023-05-29T01:21:42;101624.03;;;13.15;88.96
47753;BME280;2038;51.728;6.674;2023-05-29T01:24:43;101630.53;;;12.87;90.49
47753;BME280;2038;51.728;6.674;2023-05-29T01:27:18;101630.75;;;12.90;90.52
47753;BME280;2038;51.728;6.674;2023-05-29T01:29:47;101631.63;;;12.90;90.53
47753;BME280;2038;51.728;6.674;2023-05-29T01:32:17;101634.88;;;12.88;90.33
47753;BME280;2038;51.728;6.674;2023-05-29T01:34:44;101633.19;;;12.88;91.07
47753;BME280;2038;51.728;6.674;2023-05-29T01:37:11;101631.09;;;12.83;91.62
47753;BME280;2038;51.728;6.674;2023-05-29T01:39:37;101633.34;;;12.78;92.20
47753;BME280;2038;51.728;6.674;2023-05-29T01:42:04;101634.88;;;12.76;92.55
47753;BME280;2038;51.728;6.674;2023-05-29T01:44:31;101631.66;;;12.79;93.19
47753;BME280;2038;51.728;6.674;2023-05-29T01:46:58;101636.47;;;12.74;93.83
47753;BME280;2038;51.728;6.674;2023-05-29T01:49:24;101639.91;;;12.75;94.04
47753;BME280;2038;51.728;6.674;2023-05-29T01:51:52;101647.03;;;12.79;94.43
47753;BME280;2038;51.728;6.674;2023-05-29T01:54:18;101645.44;;;12.81;94.26
47753;BME280;2038;51.728;6.674;2023-05-29T01:56:46;101641.56;;;12.74;95.03
47753;BME280;2038;51.728;6.674;2023-05-29T01:59:13;101638.13;;;12.74;95.06
47753;BME280;2038;51.728;6.674;2023-05-29T02:01:40;101645.69;;;12.72;95.73
47753;BME280;2038;51.728;6.674;2023-05-29T02:04:07;101646.69;;;12.74;96.07
47753;BME280;2038;51.728;6.674;2023-05-29T02:06:33;101638.56;;;12.80;95.41
47753;BME280;2038;51.728;6.674;2023-05-29T02:08:59;101629.00;;;12.77;94.89
47753;BME280;2038;51.728;6.674;2023-05-29T02:11:26;101624.78;;;12.78;94.46
47753;BME280;2038;51.728;6.674;2023-05-29T02:13:52;101623.53;;;12.73;94.80
47753;BME280;2038;51.728;6.674;2023-05-29T02:16:20;101624.91;;;12.68;94.80
47753;BME280;2038;51.728;6.674;2023-05-29T02:18:46;101629.91;;;12.66;94.27
47753;BME280;2038;51.728;6.674;2023-05-29T02:21:13;101635.03;;;12.66;94.52
47753;BME280;2038;51.728;6.674;2023-05-29T02:23:39;101626.69;;;12.57;94.80
47753;BME280;2038;51.728;6.674;2023-05-29T02:26:05;101634.28;;;12.55;94.51
47753;BME280;2038;51.728;6.674;2023-05-29T02:28:33;101633.69;;;12.48;94.38
47753;BME280;2038;51.728;6.674;2023-05-29T02:30:59;101628.38;;;12.45;95.15
47753;BME280;2038;51.728;6.674;2023-05-29T02:33:25;101636.59;;;12.41;95.13
47753;BME280;2038;51.728;6.674;2023-05-29T02:35:52;101638.81;;;12.36;95.24
47753;BME280;2038;51.728;6.674;2023-05-29T02:38:18;101646.84;;;12.29;95.24
47753;BME280;2038;51.728;6.674;2023-05-29T02:40:45;101635.50;;;12.26;95.66
47753;BME280;2038;51.728;6.674;2023-05-29T02:43:13;101633.06;;;12.27;95.84
47753;BME280;2038;51.728;6.674;2023-05-29T02:45:40;101638.94;;;12.26;95.71
47753;BME280;2038;51.728;6.674;2023-05-29T02:48:06;101650.63;;;12.23;96.04
47753;BME280;2038;51.728;6.674;2023-05-29T02:50:33;101648.63;;;12.18;95.91
47753;BME280;2038;51.728;6.674;2023-05-29T02:52:59;101640.63;;;12.14;96.39
47753;BME280;2038;51.728;6.674;2023-05-29T02:55:25;101650.38;;;12.08;96.29
47753;BME280;2038;51.728;6.674;2023-05-29T02:57:52;101648.16;;;12.01;96.92
47753;BME280;2038;51.728;6.674;2023-05-29T03:00:21;101647.16;;;11.99;96.99
47753;BME280;2038;51.728;6.674;2023-05-29T03:02:47;101647.25;;;11.89;98.07
47753;BME280;2038;51.728;6.674;2023-05-29T03:05:13;101644.81;;;11.90;97.42
47753;BME280;2038;51.728;6.674;2023-05-29T03:07:39;101648.56;;;11.84;97.91
47753;BME280;2038;51.728;6.674;2023-05-29T03:10:06;101639.13;;;11.83;98.80
47753;BME280;2038;51.728;6.674;2023-05-29T03:12:33;101636.34;;;11.80;98.27
47753;BME280;2038;51.728;6.674;2023-05-29T03:14:59;101630.69;;;11.84;98.31
47753;BME280;2038;51.728;6.674;2023-05-29T03:17:25;101636.88;;;11.76;98.68
47753;BME280;2038;51.728;6.674;2023-05-29T03:19:52;101638.88;;;11.80;98.30
47753;BME280;2038;51.728;6.674;2023-05-29T03:22:18;101637.69;;;11.75;98.78
47753;BME280;2038;51.728;6.674;2023-05-29T03:24:44;101640.22;;;11.75;99.42
47753;BME280;2038;51.728;6.674;2023-05-29T03:27:11;101642.00;;;11.76;99.08
47753;BME280;2038;51.728;6.674;2023-05-29T03:29:37;101649.00;;;11.78;99.49
47753;BME280;2038;51.728;6.674;2023-05-29T03:32:03;101650.06;;;11.70;100.00
47753;BME280;2038;51.728;6.674;2023-05-29T03:34:30;101659.94;;;11.65;99.97
47753;BME280;2038;51.728;6.674;2023-05-29T03:36:56;101657.69;;;11.92;99.72
47753;BME280;2038;51.728;6.674;2023-05-29T03:39:22;101658.22;;;11.88;99.01
47753;BME280;2038;51.728;6.674;2023-05-29T03:41:49;101653.56;;;11.82;98.77
47753;BME280;2038;51.728;6.674;2023-05-29T03:44:15;101646.31;;;11.77;99.48
47753;BME280;2038;51.728;6.674;2023-05-29T03:46:41;101638.81;;;11.68;99.55
47753;BME280;2038;51.728;6.674;2023-05-29T03:49:08;101651.09;;;11.84;99.69
47753;BME280;2038;51.728;6.674;2023-05-29T03:51:34;101647.09;;;11.76;99.58
47753;BME280;2038;51.728;6.674;2023-05-29T03:54:01;101644.59;;;11.87;99.54
47753;BME280;2038;51.728;6.674;2023-05-29T03:56:27;101653.56;;;11.82;99.22
47753;BME280;2038;51.728;6.674;2023-05-29T03:58:54;101663.34;;;11.88;99.74
47753;BME280;2038;51.728;6.674;2023-05-29T04:01:20;101664.38;;;11.68;100.00
47753;BME280;2038;51.728;6.674;2023-05-29T04:03:47;101661.81;;;11.68;100.00
47753;BME280;2038;51.728;6.674;2023-05-29T04:06:13;101666.03;;;11.67;100.00
47753;BME280;2038;51.728;6.674;2023-05-29T04:08:39;101672.66;;;11.54;100.00
47753;BME280;2038;51.728;6.674;2023-05-29T04:11:05;101666.78;;;11.55;100.00
47753;BME280;2038;51.728;6.674;2023-05-29T04:13:32;101665.09;;;11.77;100.00
47753;BME280;2038;51.728;6.674;2023-05-29T04:15:58;101669.97;;;11.74;100.00
47753;BME280;2038;51.728;6.674;2023-05-29T04:18:24;101676.22;;;11.78;100.00
47753;BME280;2038;51.728;6.674;2023-05-29T04:20:51;101666.53;;;11.73;100.00
47753;BME280;2038;51.728;6.674;2023-05-29T04:23:19;101674.25;;;11.63;100.00
47753;BME280;2038;51.728;6.674;2023-05-29T04:25:45;101676.16;;;11.66;100.00
47753;BME280;2038;51.728;6.674;2023-05-29T04:28:11;101684.47;;;11.63;100.00
47753;BME280;2038;51.728;6.674;2023-05-29T04:30:38;101683.88;;;11.78;100.00
47753;BME280;2038;51.728;6.674;2023-05-29T04:33:05;101688.78;;;11.86;100.00
47753;BME280;2038;51.728;6.674;2023-05-29T04:35:31;101690.13;;;12.04;99.35
47753;BME280;2038;51.728;6.674;2023-05-29T04:37:57;101697.00;;;11.82;100.00
47753;BME280;2038;51.728;6.674;2023-05-29T04:40:23;101695.34;;;11.94;100.00
47753;BME280;2038;51.728;6.674;2023-05-29T04:42:50;101697.59;;;12.01;99.84
47753;BME280;2038;51.728;6.674;2023-05-29T04:45:18;101690.69;;;12.12;99.68
47753;BME280;2038;51.728;6.674;2023-05-29T04:47:46;101695.41;;;12.29;99.63
47753;BME280;2038;51.728;6.674;2023-05-29T04:50:13;101700.09;;;12.35;97.98
47753;BME280;2038;51.728;6.674;2023-05-29T04:52:40;101703.19;;;12.42;98.16
47753;BME280;2038;51.728;6.674;2023-05-29T04:55:07;101704.19;;;12.56;98.03
47753;BME280;2038;51.728;6.674;2023-05-29T04:57:34;101714.84;;;12.85;95.61
47753;BME280;2038;51.728;6.674;2023-05-29T05:00:00;101708.19;;;12.76;96.58
47753;BME280;2038;51.728;6.674;2023-05-29T05:02:27;101714.75;;;12.84;95.64
47753;BME280;2038;51.728;6.674;2023-05-29T05:04:53;101711.16;;;12.93;94.35
47753;BME280;2038;51.728;6.674;2023-05-29T05:07:20;101699.81;;;13.01;94.00
47753;BME280;2038;51.728;6.674;2023-05-29T05:09:46;101709.97;;;13.11;93.60
47753;BME280;2038;51.728;6.674;2023-05-29T05:12:12;101718.75;;;13.15;94.06
47753;BME280;2038;51.728;6.674;2023-05-29T05:14:38;101716.47;;;13.31;93.54
47753;BME280;2038;51.728;6.674;2023-05-29T05:17:04;101716.84;;;13.49;93.37
47753;BME280;2038;51.728;6.674;2023-05-29T05:19:31;101718.00;;;13.66;91.44
47753;BME280;2038;51.728;6.674;2023-05-29T05:21:57;101714.72;;;13.80;90.02
47753;BME280;2038;51.728;6.674;2023-05-29T05:24:23;101711.59;;;13.97;89.70
47753;BME280;2038;51.728;6.674;2023-05-29T05:26:50;101714.66;;;14.04;90.24
47753;BME280;2038;51.728;6.674;2023-05-29T05:29:16;101719.91;;;14.06;89.11
47753;BME280;2038;51.728;6.674;2023-05-29T05:31:42;101722.16;;;14.01;88.26
47753;BME280;2038;51.728;6.674;2023-05-29T05:34:09;101723.56;;;14.10;89.14
47753;BME280;2038;51.728;6.674;2023-05-29T05:36:35;101722.31;;;14.16;88.02
47753;BME280;2038;51.728;6.674;2023-05-29T05:39:02;101719.81;;;14.18;87.82
47753;BME280;2038;51.728;6.674;2023-05-29T05:41:28;101728.88;;;14.13;86.97
47753;BME280;2038;51.728;6.674;2023-05-29T05:43:54;101724.28;;;14.20;87.94
47753;BME280;2038;51.728;6.674;2023-05-29T05:46:21;101718.34;;;14.21;87.32
47753;BME280;2038;51.728;6.674;2023-05-29T05:48:47;101716.28;;;14.16;87.51
47753;BME280;2038;51.728;6.674;2023-05-29T05:51:13;101719.25;;;14.22;87.81
47753;BME280;2038;51.728;6.674;2023-05-29T05:53:40;101724.78;;;14.28;87.12
47753;BME280;2038;51.728;6.674;2023-05-29T05:56:06;101726.53;;;14.29;87.16
47753;BME280;2038;51.728;6.674;2023-05-29T05:58:32;101724.72;;;14.39;85.71
47753;BME280;2038;51.728;6.674;2023-05-29T06:00:58;101728.50;;;14.33;86.08
47753;BME280;2038;51.728;6.674;2023-05-29T06:03:25;101730.16;;;14.44;86.53
47753;BME280;2038;51.728;6.674;2023-05-29T06:05:52;101721.34;;;14.40;86.41
47753;BME280;2038;51.728;6.674;2023-05-29T06:08:20;101722.38;;;14.56;87.07
47753;BME280;2038;51.728;6.674;2023-05-29T06:10:46;101737.97;;;14.59;85.34
47753;BME280;2038;51.728;6.674;2023-05-29T06:13:12;101724.66;;;14.64;85.75
47753;BME280;2038;51.728;6.674;2023-05-29T06:15:39;101741.22;;;14.56;85.55
47753;BME280;2038;51.728;6.674;2023-05-29T06:18:05;101732.44;;;14.66;84.86
47753;BME280;2038;51.728;6.674;2023-05-29T06:20:31;101736.19;;;14.84;84.95
47753;BME280;2038;51.728;6.674;2023-05-29T06:22:57;101738.66;;;14.95;83.68
47753;BME280;2038;51.728;6.674;2023-05-29T06:25:24;101741.88;;;14.93;82.50
47753;BME280;2038;51.728;6.674;2023-05-29T06:27:59;101747.53;;;14.87;82.95
47753;BME280;2038;51.728;6.674;2023-05-29T06:30:26;101745.38;;;14.80;83.43
47753;BME280;2038;51.728;6.674;2023-05-29T06:32:53;101745.28;;;14.92;83.02
47753;BME280;2038;51.728;6.674;2023-05-29T06:35:19;101748.50;;;15.03;82.92
47753;BME280;2038;51.728;6.674;2023-05-29T06:37:46;101754.94;;;14.96;83.20
47753;BME280;2038;51.728;6.674;2023-05-29T06:40:13;101751.25;;;14.92;83.13
47753;BME280;2038;51.728;6.674;2023-05-29T06:42:41;101750.78;;;14.85;83.39
47753;BME280;2038;51.728;6.674;2023-05-29T06:45:11;101757.69;;;14.86;83.76
47753;BME280;2038;51.728;6.674;2023-05-29T06:47:42;101758.66;;;15.01;83.00
47753;BME280;2038;51.728;6.674;2023-05-29T06:50:08;101764.22;;;14.94;82.17
47753;BME280;2038;51.728;6.674;2023-05-29T06:52:35;101765.28;;;14.97;83.20
47753;BME280;2038;51.728;6.674;2023-05-29T06:55:02;101762.06;;;15.00;82.57
47753;BME280;2038;51.728;6.674;2023-05-29T06:57:28;101763.78;;;15.14;80.97
47753;BME280;2038;51.728;6.674;2023-05-29T06:59:55;101763.59;;;15.11;82.08
47753;BME280;2038;51.728;6.674;2023-05-29T07:02:21;101759.91;;;15.21;81.07
47753;BME280;2038;51.728;6.674;2023-05-29T07:04:47;101764.75;;;15.29;81.50
47753;BME280;2038;51.728;6.674;2023-05-29T07:07:13;101767.31;;;15.29;82.43
47753;BME280;2038;51.728;6.674;2023-05-29T07:09:40;101772.47;;;15.29;81.69
47753;BME280;2038;51.728;6.674;2023-05-29T07:12:06;101779.56;;;15.33;79.86
47753;BME280;2038;51.728;6.674;2023-05-29T07:14:32;101776.09;;;15.33;80.61
47753;BME280;2038;51.728;6.674;2023-05-29T07:16:59;101771.06;;;15.34;81.47
47753;BME280;2038;51.728;6.674;2023-05-29T07:19:26;101771.56;;;15.29;80.08
47753;BME280;2038;51.728;6.674;2023-05-29T07:21:52;101771.84;;;15.33;79.76
47753;BME280;2038;51.728;6.674;2023-05-29T07:24:18;101774.34;;;15.32;82.44
47753;BME280;2038;51.728;6.674;2023-05-29T07:26:45;101781.28;;;15.61;82.74
47753;BME280;2038;51.728;6.674;2023-05-29T07:29:11;101776.41;;;15.78;80.46
47753;BME280;2038;51.728;6.674;2023-05-29T07:31:38;101783.16;;;15.76;80.65
47753;BME280;2038;51.728;6.674;2023-05-29T07:34:06;101771.84;;;15.87;80.02
47753;BME280;2038;51.728;6.674;2023-05-29T07:36:32;101784.44;;;15.98;78.74
47753;BME280;2038;51.728;6.674;2023-05-29T07:38:58;101778.38;;;15.97;79.46
47753;BME280;2038;51.728;6.674;2023-05-29T07:41:25;101773.63;;;16.03;78.18
47753;BME280;2038;51.728;6.674;2023-05-29T07:43:52;101770.28;;;16.04;76.55
47753;BME280;2038;51.728;6.674;2023-05-29T07:46:19;101775.31;;;16.03;77.33
47753;BME280;2038;51.728;6.674;2023-05-29T07:48:45;101786.06;;;16.10;77.99
47753;BME280;2038;51.728;6.674;2023-05-29T07:51:12;101793.25;;;16.16;76.53
47753;BME280;2038;51.728;6.674;2023-05-29T07:53:39;101774.53;;;16.18;75.94
47753;BME280;2038;51.728;6.674;2023-05-29T07:56:05;101786.34;;;16.29;76.78
47753;BME280;2038;51.728;6.674;2023-05-29T07:58:31;101789.47;;;16.38;77.71
47753;BME280;2038;51.728;6.674;2023-05-29T08:00:59;101788.50;;;16.51;76.23
47753;BME280;2038;51.728;6.674;2023-05-29T08:03:25;101792.44;;;16.59;75.51
47753;BME280;2038;51.728;6.674;2023-05-29T08:05:51;101790.03;;;16.62;77.37
47753;BME280;2038;51.728;6.674;2023-05-29T08:08:18;101794.00;;;16.57;74.10
47753;BME280;2038;51.728;6.674;2023-05-29T08:10:45;101803.69;;;16.61;75.43
47753;BME280;2038;51.728;6.674;2023-05-29T08:13:11;101793.75;;;16.67;75.43
47753;BME280;2038;51.728;6.674;2023-05-29T08:15:37;101798.91;;;16.67;73.66
47753;BME280;2038;51.728;6.674;2023-05-29T08:18:04;101799.63;;;16.65;73.25
47753;BME280;2038;51.728;6.674;2023-05-29T08:20:30;101802.81;;;16.61;74.10
47753;BME280;2038;51.728;6.674;2023-05-29T08:22:57;101804.84;;;16.66;73.87
47753;BME280;2038;51.728;6.674;2023-05-29T08:25:23;101807.94;;;16.75;74.36
47753;BME280;2038;51.728;6.674;2023-05-29T08:27:49;101805.28;;;16.89;73.83
47753;BME280;2038;51.728;6.674;2023-05-29T08:30:15;101808.19;;;16.95;75.12
47753;BME280;2038;51.728;6.674;2023-05-29T08:32:42;101809.88;;;17.09;72.24
47753;BME280;2038;51.728;6.674;2023-05-29T08:35:08;101800.53;;;17.11;74.62
47753;BME280;2038;51.728;6.674;2023-05-29T08:37:34;101806.09;;;17.18;73.35
47753;BME280;2038;51.728;6.674;2023-05-29T08:40:01;101811.34;;;17.05;70.57
47753;BME280;2038;51.728;6.674;2023-05-29T08:42:35;101818.66;;;17.12;71.29
47753;BME280;2038;51.728;6.674;2023-05-29T08:45:07;101809.34;;;17.00;72.06
47753;BME280;2038;51.728;6.674;2023-05-29T08:47:40;101813.25;;;17.08;72.92
47753;BME280;2038;51.728;6.674;2023-05-29T08:50:08;101801.75;;;17.17;73.84
47753;BME280;2038;51.728;6.674;2023-05-29T08:52:36;101815.41;;;17.31;75.37
47753;BME280;2038;51.728;6.674;2023-05-29T08:55:04;101816.38;;;17.49;73.03
47753;BME280;2038;51.728;6.674;2023-05-29T08:57:31;101819.66;;;17.61;72.72
47753;BME280;2038;51.728;6.674;2023-05-29T08:59:58;101826.63;;;17.78;68.87
47753;BME280;2038;51.728;6.674;2023-05-29T09:02:26;101818.97;;;17.64;71.00
47753;BME280;2038;51.728;6.674;2023-05-29T09:04:53;101823.13;;;17.62;69.94
47753;BME280;2038;51.728;6.674;2023-05-29T09:07:20;101827.91;;;17.70;71.02
47753;BME280;2038;51.728;6.674;2023-05-29T09:09:47;101825.56;;;17.75;70.09
47753;BME280;2038;51.728;6.674;2023-05-29T09:12:15;101829.78;;;17.73;70.39
47753;BME280;2038;51.728;6.674;2023-05-29T09:14:43;101827.66;;;17.82;70.01
47753;BME280;2038;51.728;6.674;2023-05-29T09:17:11;101825.03;;;17.81;71.08
47753;BME280;2038;51.728;6.674;2023-05-29T09:19:39;101827.66;;;17.82;69.93
47753;BME280;2038;51.728;6.674;2023-05-29T09:22:13;101822.50;;;17.98;70.80
47753;BME280;2038;51.728;6.674;2023-05-29T09:24:42;101813.22;;;18.18;69.49
47753;BME280;2038;51.728;6.674;2023-05-29T09:27:11;101824.03;;;18.27;67.57
47753;BME280;2038;51.728;6.674;2023-05-29T09:29:41;101823.13;;;18.27;66.96
47753;BME280;2038;51.728;6.674;2023-05-29T09:32:13;101817.41;;;18.32;68.53
47753;BME280;2038;51.728;6.674;2023-05-29T09:34:43;101815.34;;;18.25;68.68
47753;BME280;2038;51.728;6.674;2023-05-29T09:37:10;101821.41;;;18.09;66.98
47753;BME280;2038;51.728;6.674;2023-05-29T09:39:51;101823.81;;;18.06;68.32
47753;BME280;2038;51.728;6.674;2023-05-29T09:42:18;101819.03;;;18.14;69.54
47753;BME280;2038;51.728;6.674;2023-05-29T09:44:51;101816.13;;;18.24;70.15
47753;BME280;2038;51.728;6.674;2023-05-29T09:47:18;101812.31;;;18.34;69.69
47753;BME280;2038;51.728;6.674;2023-05-29T09:49:46;101822.47;;;18.63;69.23
47753;BME280;2038;51.728;6.674;2023-05-29T09:52:13;101814.94;;;18.51;68.86
47753;BME280;2038;51.728;6.674;2023-05-29T09:54:42;101818.56;;;18.53;68.78
47753;BME280;2038;51.728;6.674;2023-05-29T09:57:17;101813.53;;;18.56;67.42
47753;BME280;2038;51.728;6.674;2023-05-29T09:59:46;101803.69;;;18.49;69.36
47753;BME280;2038;51.728;6.674;2023-05-29T10:02:18;101808.75;;;18.48;68.46
47753;BME280;2038;51.728;6.674;2023-05-29T10:04:45;101811.84;;;18.57;67.06
47753;BME280;2038;51.728;6.674;2023-05-29T10:07:27;101813.03;;;18.47;67.71
47753;BME280;2038;51.728;6.674;2023-05-29T10:10:02;101815.22;;;18.56;67.10
47753;BME280;2038;51.728;6.674;2023-05-29T10:12:32;101811.03;;;18.76;69.11
47753;BME280;2038;51.728;6.674;2023-05-29T10:15:11;101809.63;;;18.82;67.67
47753;BME280;2038;51.728;6.674;2023-05-29T10:17:45;101812.00;;;18.95;67.84
47753;BME280;2038;51.728;6.674;2023-05-29T10:20:27;101810.25;;;19.12;68.38
47753;BME280;2038;51.728;6.674;2023-05-29T10:22:56;101816.13;;;19.27;69.16
47753;BME280;2038;51.728;6.674;2023-05-29T10:25:29;101812.50;;;19.41;66.22
47753;BME280;2038;51.728;6.674;2023-05-29T10:27:57;101811.78;;;19.44;64.55
47753;BME280;2038;51.728;6.674;2023-05-29T10:30:49;101807.09;;;19.54;65.93
47753;BME280;2038;51.728;6.674;2023-05-29T10:33:42;101807.09;;;19.54;63.77
47753;BME280;2038;51.728;6.674;2023-05-29T10:36:19;101799.50;;;19.57;65.80
47753;BME280;2038;51.728;6.674;2023-05-29T10:38:50;101790.22;;;19.62;66.27
47753;BME280;2038;51.728;6.674;2023-05-29T10:43:57;101801.59;;;19.66;64.30
47753;BME280;2038;51.728;6.674;2023-05-29T10:49:20;101786.03;;;19.65;64.99
47753;BME280;2038;51.728;6.674;2023-05-29T10:51:47;101794.25;;;19.75;67.27
47753;BME280;2038;51.728;6.674;2023-05-29T10:54:14;101776.69;;;19.87;64.72
47753;BME280;2038;51.728;6.674;2023-05-29T10:56:45;101797.13;;;20.00;64.15
47753;BME280;2038;51.728;6.674;2023-05-29T10:59:19;101789.56;;;20.05;62.89
47753;BME280;2038;51.728;6.674;2023-05-29T11:01:46;101799.78;;;20.02;63.01
47753;BME280;2038;51.728;6.674;2023-05-29T11:06:46;101797.59;;;20.30;63.39
47753;BME280;2038;51.728;6.674;2023-05-29T11:09:51;101810.19;;;20.42;61.87
47753;BME280;2038;51.728;6.674;2023-05-29T11:12:24;101806.66;;;20.21;61.81
47753;BME280;2038;51.728;6.674;2023-05-29T11:15:06;101794.72;;;20.24;63.98
47753;BME280;2038;51.728;6.674;2023-05-29T11:20:32;101800.84;;;20.45;62.70
47753;BME280;2038;51.728;6.674;2023-05-29T11:23:05;101801.47;;;20.40;62.24
47753;BME280;2038;51.728;6.674;2023-05-29T11:25:36;101797.53;;;20.29;61.96
47753;BME280;2038;51.728;6.674;2023-05-29T11:28:04;101786.88;;;20.23;62.74
47753;BME280;2038;51.728;6.674;2023-05-29T11:30:47;101787.88;;;20.26;63.10
47753;BME280;2038;51.728;6.674;2023-05-29T11:33:27;101787.19;;;20.29;63.96
47753;BME280;2038;51.728;6.674;2023-05-29T11:36:00;101784.84;;;20.35;62.58
47753;BME280;2038;51.728;6.674;2023-05-29T11:38:28;101781.72;;;20.42;60.50
47753;BME280;2038;51.728;6.674;2023-05-29T11:40:55;101779.44;;;20.49;62.38
47753;BME280;2038;51.728;6.674;2023-05-29T11:43:22;101783.44;;;20.43;61.57
47753;BME280;2038;51.728;6.674;2023-05-29T11:45:48;101784.22;;;20.40;61.30
47753;BME280;2038;51.728;6.674;2023-05-29T11:48:14;101787.06;;;20.46;61.06
47753;BME280;2038;51.728;6.674;2023-05-29T11:50:41;101783.03;;;20.53;61.17
47753;BME280;2038;51.728;6.674;2023-05-29T11:53:07;101781.69;;;20.63;60.53
47753;BME280;2038;51.728;6.674;2023-05-29T11:55:34;101779.78;;;20.79;61.80
47753;BME280;2038;51.728;6.674;2023-05-29T11:58:05;101776.00;;;20.71;60.67
47753;BME280;2038;51.728;6.674;2023-05-29T12:00:36;101773.53;;;20.74;60.91
47753;BME280;2038;51.728;6.674;2023-05-29T12:03:06;101776.31;;;20.79;61.10
47753;BME280;2038;51.728;6.674;2023-05-29T12:05:46;101774.97;;;20.88;61.84
47753;BME280;2038;51.728;6.674;2023-05-29T12:08:25;101771.88;;;20.97;60.68
47753;BME280;2038;51.728;6.674;2023-05-29T12:10:53;101776.56;;;21.07;61.35
47753;BME280;2038;51.728;6.674;2023-05-29T12:13:19;101773.94;;;21.06;59.69
47753;BME280;2038;51.728;6.674;2023-05-29T12:15:47;101771.97;;;21.21;60.96
47753;BME280;2038;51.728;6.674;2023-05-29T12:18:15;101771.78;;;21.16;60.64
47753;BME280;2038;51.728;6.674;2023-05-29T12:20:41;101767.31;;;21.12;59.93
47753;BME280;2038;51.728;6.674;2023-05-29T12:23:08;101775.00;;;21.11;59.43
47753;BME280;2038;51.728;6.674;2023-05-29T12:25:35;101777.16;;;21.21;59.64
47753;BME280;2038;51.728;6.674;2023-05-29T12:28:03;101771.78;;;21.16;60.44
47753;BME280;2038;51.728;6.674;2023-05-29T12:30:30;101776.94;;;21.37;59.42
47753;BME280;2038;51.728;6.674;2023-05-29T12:32:57;101779.72;;;21.43;59.87
47753;BME280;2038;51.728;6.674;2023-05-29T12:35:27;101769.72;;;21.76;61.07
47753;BME280;2038;51.728;6.674;2023-05-29T12:38:02;101773.13;;;21.75;59.21
47753;BME280;2038;51.728;6.674;2023-05-29T12:40:32;101770.00;;;21.83;60.70
47753;BME280;2038;51.728;6.674;2023-05-29T12:43:07;101773.47;;;21.84;58.42
47753;BME280;2038;51.728;6.674;2023-05-29T12:45:36;101762.09;;;21.80;60.36
47753;BME280;2038;51.728;6.674;2023-05-29T12:48:04;101769.78;;;21.77;60.18
47753;BME280;2038;51.728;6.674;2023-05-29T12:50:37;101769.41;;;21.90;59.15
47753;BME280;2038;51.728;6.674;2023-05-29T12:53:05;101777.06;;;21.87;59.44
47753;BME280;2038;51.728;6.674;2023-05-29T12:55:35;101776.44;;;21.93;59.08
47753;BME280;2038;51.728;6.674;2023-05-29T12:58:06;101778.31;;;21.97;58.94
47753;BME280;2038;51.728;6.674;2023-05-29T13:00:42;101783.22;;;21.89;57.37
47753;BME280;2038;51.728;6.674;2023-05-29T13:03:10;101776.38;;;21.91;58.24
47753;BME280;2038;51.728;6.674;2023-05-29T13:05:39;101773.84;;;21.93;58.51
47753;BME280;2038;51.728;6.674;2023-05-29T13:08:06;101779.50;;;22.07;56.38
47753;BME280;2038;51.728;6.674;2023-05-29T13:10:34;101773.78;;;21.91;55.15
47753;BME280;2038;51.728;6.674;2023-05-29T13:13:03;101781.88;;;21.77;56.24
47753;BME280;2038;51.728;6.674;2023-05-29T13:15:29;101775.00;;;21.77;56.54
47753;BME280;2038;51.728;6.674;2023-05-29T13:17:56;101779.13;;;21.72;55.58
47753;BME280;2038;51.728;6.674;2023-05-29T13:20:22;101777.44;;;21.51;55.85